Impacts TAF Board INFO
FOR SITUATIONAL AWARENESS. NOT TO BE USED FOR FLIGHT PLANNING PURPOSES.
IDs:

KTPA - Tampa Intl Arpt, FL, US

Issued at 0307 UTC 21 Jan 2018
Updated at 0432 UTC 21 Jan 2018
Potential Impact None Slight Moderate High
Time<<21/17Z 21/18Z 21/19Z 21/20Z 21/21Z 21/22Z 21/23Z 22/00Z 22/01Z 22/02Z 22/03Z 22/04Z 22/05Z>>
Type PRVL PRVL PRVL PRVL PRVL PRVL PRVL PRVL PRVL PRVL PRVL PRVL PRVL
VIS >6 >6 >6 >6 >6 >6 >6 >6 >6 >6 >6 >6 >6
CIG -- -- -- -- -- -- -- -- -- -- -- -- --
Cover SCT SCT SCT SCT SCT SCT SCT SCT SCT FEW FEW FEW FEW
FltCat VFR VFR VFR VFR VFR VFR VFR VFR VFR VFR VFR VFR VFR
WX -- -- -- -- -- -- -- -- -- -- -- -- --
WDir 90 90 140 140 140 140 140 140 140 80 80 80 80
WSpd 6 6 6 6 6 6 6 6 6 5 5 5 5
WGst -- -- -- -- -- -- -- -- -- -- -- -- --

Raw TAF
KTPA 210307Z 2103/2206 06003KT P6SM FEW040 BKN120
  FM211500 09006KT P6SM FEW030 SCT120
  FM211900 14006KT P6SM SCT045 SCT100
  FM220200 08005KT P6SM FEW045


METAR Board
Radar Display
Forecast Discussion

FOR SITUATIONAL AWARENESS. NOT TO BE USED FOR FLIGHT PLANNING PURPOSES.